Time;durP1;ratioP1;P1;durP2;ratioP2;P2;SDS_P1;SDS_P2;PMS_P1;PMS_P2;Temp;Humidity;BMP_temperature;BMP_pressure;BME280_temperature;BME280_humidity;BME280_pressure;Samples;Min_cycle;Max_cycle;Signal;HPM_P1;HPM_P2
2022/03/24 00:01:36;;;;;;;;;;;;;;;1.30;39.59;101578.37;1951216;73;20120;-65
2022/03/24 00:04:04;;;;;;;;;;;;;;;1.27;39.60;101577.02;1951541;73;20166;-65
2022/03/24 00:06:32;;;;;;;;;;;;;;;1.28;39.78;101577.48;1951055;73;20162;-67
2022/03/24 00:09:00;;;;;;;;;;;;;;;1.27;39.75;101582.21;1948032;73;20171;-64
2022/03/24 00:11:27;;;;;;;;;;;;;;;1.25;40.16;101573.54;1950890;73;20276;-65
2022/03/24 00:13:55;;;;;;;;;;;;;;;1.23;40.33;101564.44;1947624;72;20271;-63
2022/03/24 00:16:23;;;;;;;;;;;;;;;1.25;40.50;101557.53;1950680;73;20207;-61
2022/03/24 00:18:51;;;;;;;;;;;;;;;1.27;40.50;101565.34;1950740;73;20230;-61
2022/03/24 00:21:19;;;;;;;;;;;;;;;1.27;40.37;101556.27;1945651;73;20165;-59
2022/03/24 00:23:46;;;;;;;;;;;;;;;1.27;40.51;101551.08;1933608;73;20240;-63
2022/03/24 00:26:14;;;;;;;;;;;;;;;1.25;40.47;101543.27;1939200;73;20536;-61
2022/03/24 00:28:43;;;;;;;;;;;;;;;1.24;40.51;101542.84;1929944;73;20471;-61
2022/03/24 00:31:11;;;;;;;;;;;;;;;1.23;40.47;101539.79;1935951;73;20148;-64
2022/03/24 00:33:39;;;;;;;;;;;;;;;1.22;40.47;101538.47;1934441;73;20521;-64
2022/03/24 00:36:08;;;;;;;;;;;;;;;1.20;40.38;101536.28;1929910;73;20235;-62
2022/03/24 00:38:36;;;;;;;;;;;;;;;1.19;40.57;101531.97;1933151;73;20167;-65
2022/03/24 00:41:04;;;;;;;;;;;;;;;1.15;40.79;101534.52;1928431;73;20268;-63
2022/03/24 00:43:32;;;;;;;;;;;;;;;1.15;40.77;101529.33;1933203;73;20210;-68
2022/03/24 00:46:00;;;;;;;;;;;;;;;1.15;40.87;101530.62;1938689;73;20288;-60
2022/03/24 00:48:27;;;;;;;;;;;;;;;1.14;40.74;101528.00;1932142;73;20204;-62
2022/03/24 00:50:56;;;;;;;;;;;;;;;1.10;40.87;101519.31;1935318;73;20124;-63
2022/03/24 00:53:24;;;;;;;;;;;;;;;1.09;41.06;101513.69;1937872;73;20171;-63
2022/03/24 00:55:52;;;;;;;;;;;;;;;1.08;41.09;101514.53;1937834;73;20108;-64
2022/03/24 00:58:20;;;;;;;;;;;;;;;1.08;41.15;101517.56;1933997;73;20193;-61
2022/03/24 01:00:48;;;;;;;;;;;;;;;1.08;41.36;101513.67;1931591;73;20252;-66
2022/03/24 01:03:16;;;;;;;;;;;;;;;1.04;41.57;101502.38;1935537;73;20117;-65
2022/03/24 01:05:44;;;;;;;;;;;;;;;1.01;41.59;101505.36;1929659;73;20147;-64
2022/03/24 01:08:13;;;;;;;;;;;;;;;0.97;41.54;101507.05;1935654;73;20183;-67
2022/03/24 01:10:41;;;;;;;;;;;;;;;0.93;41.56;101511.75;1936757;73;20235;-67
2022/03/24 01:13:09;;;;;;;;;;;;;;;0.88;41.61;101506.49;1932526;73;20207;-70
2022/03/24 01:15:37;;;;;;;;;;;;;;;0.84;41.54;101504.72;1921692;73;20208;-70
2022/03/24 01:18:06;;;;;;;;;;;;;;;0.79;41.55;101505.51;1926617;73;20112;-72
2022/03/24 01:20:35;;;;;;;;;;;;;;;0.74;41.93;101507.63;1935754;73;20214;-68
2022/03/24 01:23:03;;;;;;;;;;;;;;;0.71;41.81;101503.68;1965056;72;20109;-64
2022/03/24 01:25:30;;;;;;;;;;;;;;;0.68;41.76;101506.25;1976266;72;20176;-60
2022/03/24 01:27:58;;;;;;;;;;;;;;;0.65;41.73;101498.42;1964773;72;20433;-66
2022/03/24 01:30:26;;;;;;;;;;;;;;;0.63;41.68;101491.45;1967404;72;20206;-65
2022/03/24 01:32:54;;;;;;;;;;;;;;;0.58;41.67;101483.63;1962835;72;20105;-67
2022/03/24 01:35:21;;;;;;;;;;;;;;;0.54;41.70;101481.86;1969852;72;20147;-66
2022/03/24 01:37:49;;;;;;;;;;;;;;;0.50;41.78;101478.75;1976616;72;20202;-67
2022/03/24 01:40:17;;;;;;;;;;;;;;;0.45;41.83;101477.41;1966155;72;20110;-68
2022/03/24 01:42:46;;;;;;;;;;;;;;;0.41;41.83;101475.62;1962391;72;20207;-68
2022/03/24 01:45:14;;;;;;;;;;;;;;;0.40;41.91;101482.08;1964486;72;20143;-69
2022/03/24 01:47:43;;;;;;;;;;;;;;;0.38;41.87;101482.05;1965408;72;20216;-64
2022/03/24 01:50:11;;;;;;;;;;;;;;;0.37;41.94;101486.37;1960541;73;20198;-64
2022/03/24 01:52:40;;;;;;;;;;;;;;;0.35;41.88;101486.77;1970711;72;20413;-63
2022/03/24 01:55:08;;;;;;;;;;;;;;;0.32;41.82;101480.23;2003268;72;20109;-64
2022/03/24 01:57:36;;;;;;;;;;;;;;;0.30;41.80;101479.78;2000331;72;20122;-63
2022/03/24 02:00:05;;;;;;;;;;;;;;;0.28;41.84;101484.94;1940695;74;20141;-66
2022/03/24 02:02:34;;;;;;;;;;;;;;;0.27;41.98;101484.91;1938591;73;20206;-73
2022/03/24 02:05:02;;;;;;;;;;;;;;;0.25;42.17;101482.29;2000492;72;20136;-62
2022/03/24 02:07:32;;;;;;;;;;;;;;;0.23;42.23;101481.40;2003232;72;20157;-66
2022/03/24 02:10:01;;;;;;;;;;;;;;;0.20;42.41;101478.75;2003318;72;20144;-63
2022/03/24 02:12:29;;;;;;;;;;;;;;;0.18;42.46;101476.56;2003168;72;20117;-67
2022/03/24 02:14:59;;;;;;;;;;;;;;;0.19;42.69;101479.61;2002207;72;20113;-66
2022/03/24 02:17:30;;;;;;;;;;;;;;;0.19;42.65;101477.02;2003426;72;20382;-63
2022/03/24 02:19:59;;;;;;;;;;;;;;;0.16;43.15;101478.27;1971783;72;20143;-61
2022/03/24 02:22:28;;;;;;;;;;;;;;;0.14;43.21;101478.66;1940616;74;20147;-64
2022/03/24 02:24:56;;;;;;;;;;;;;;;0.17;43.32;101486.49;1964323;72;20148;-70
2022/03/24 02:27:24;;;;;;;;;;;;;;;0.18;43.33;101481.73;2003252;72;20367;-65
2022/03/24 02:29:52;;;;;;;;;;;;;;;0.19;43.28;101480.47;2003309;72;20203;-70
2022/03/24 02:32:22;;;;;;;;;;;;;;;0.19;43.68;101474.44;2003254;72;20098;-63
2022/03/24 02:34:51;;;;;;;;;;;;;;;0.18;43.78;101471.38;2002373;72;20379;-65
2022/03/24 02:37:20;;;;;;;;;;;;;;;0.17;43.64;101461.89;1943699;72;20137;-65
2022/03/24 02:39:51;;;;;;;;;;;;;;;0.18;43.56;101458.43;1926381;74;20508;-65
2022/03/24 02:42:21;;;;;;;;;;;;;;;0.17;43.45;101452.82;1999370;72;20368;-64
2022/03/24 02:44:50;;;;;;;;;;;;;;;0.16;43.54;101447.18;2003337;72;20375;-64
2022/03/24 02:47:18;;;;;;;;;;;;;;;0.12;43.53;101446.70;1971061;72;20096;-65
2022/03/24 02:49:47;;;;;;;;;;;;;;;0.09;43.53;101446.64;1960627;73;20116;-67
2022/03/24 02:52:15;;;;;;;;;;;;;;;0.06;43.43;101444.88;1972505;72;20197;-64
2022/03/24 02:54:43;;;;;;;;;;;;;;;0.02;43.49;101442.20;1972515;72;20170;-63
2022/03/24 02:57:11;;;;;;;;;;;;;;;-0.03;43.50;101445.61;1945463;72;20164;-65
2022/03/24 02:59:39;;;;;;;;;;;;;;;-0.09;43.46;101445.52;1961527;72;20103;-65
2022/03/24 03:02:08;;;;;;;;;;;;;;;-0.15;43.49;101449.28;1975953;72;20112;-70
2022/03/24 03:04:36;;;;;;;;;;;;;;;-0.17;43.59;101455.29;1967425;73;20116;-65
2022/03/24 03:07:04;;;;;;;;;;;;;;;-0.22;43.65;101453.50;1960734;73;20142;-64
2022/03/24 03:09:33;;;;;;;;;;;;;;;-0.25;43.80;101447.41;1960734;73;20358;-66
2022/03/24 03:12:01;;;;;;;;;;;;;;;-0.30;43.81;101436.95;1976968;72;20423;-62
2022/03/24 03:14:29;;;;;;;;;;;;;;;-0.31;43.82;101429.20;1987335;72;20148;-64
2022/03/24 03:16:57;;;;;;;;;;;;;;;-0.34;43.83;101431.72;1987299;72;20110;-62
2022/03/24 03:19:25;;;;;;;;;;;;;;;-0.38;44.06;101433.81;1999092;72;20101;-63
2022/03/24 03:21:53;;;;;;;;;;;;;;;-0.40;44.20;101434.65;1975004;72;20112;-63
2022/03/24 03:24:24;;;;;;;;;;;;;;;-0.40;44.41;101434.65;1990720;72;20187;-64
2022/03/24 03:26:55;;;;;;;;;;;;;;;-0.41;44.51;101432.92;1978015;72;20245;-65
2022/03/24 03:29:23;;;;;;;;;;;;;;;-0.38;44.57;101433.39;1978332;72;20116;-65
2022/03/24 03:31:53;;;;;;;;;;;;;;;-0.36;44.57;101425.22;1951132;72;20253;-67
2022/03/24 03:34:24;;;;;;;;;;;;;;;-0.36;44.94;101423.06;1959711;73;20149;-66
2022/03/24 03:36:53;;;;;;;;;;;;;;;-0.35;44.80;101422.20;1949479;73;20171;-66
2022/03/24 03:39:21;;;;;;;;;;;;;;;-0.35;44.87;101429.56;1961479;73;20108;-65
2022/03/24 03:41:48;;;;;;;;;;;;;;;-0.35;44.86;101428.67;1961387;73;20146;-66
2022/03/24 03:44:16;;;;;;;;;;;;;;;-0.33;44.94;101425.28;1961311;73;20147;-59
2022/03/24 03:46:44;;;;;;;;;;;;;;;-0.31;45.04;101421.44;1969454;72;20118;-63
2022/03/24 03:49:12;;;;;;;;;;;;;;;-0.29;45.18;101424.48;1978476;72;20165;-64
2022/03/24 03:51:40;;;;;;;;;;;;;;;-0.26;45.46;101427.53;1963764;72;20118;-63
2022/03/24 03:54:08;;;;;;;;;;;;;;;-0.23;45.60;101425.00;1980227;72;20144;-62
2022/03/24 03:56:37;;;;;;;;;;;;;;;-0.22;45.89;101428.05;1980082;72;20140;-64
2022/03/24 03:59:06;;;;;;;;;;;;;;;-0.21;45.92;101424.60;1980229;72;20098;-63
2022/03/24 04:01:34;;;;;;;;;;;;;;;-0.16;46.22;101425.55;1980176;72;20137;-62
2022/03/24 04:04:02;;;;;;;;;;;;;;;-0.13;47.64;101430.79;1969232;72;20179;-64
2022/03/24 04:06:29;;;;;;;;;;;;;;;-0.11;47.23;101418.73;1960701;73;20131;-62
2022/03/24 04:08:57;;;;;;;;;;;;;;;-0.09;47.49;101422.22;1960665;73;20135;-62
2022/03/24 04:11:25;;;;;;;;;;;;;;;-0.02;47.49;101421.87;1970771;72;20230;-60
2022/03/24 04:13:53;;;;;;;;;;;;;;;0.02;47.71;101422.78;1991831;72;20101;-61
2022/03/24 04:16:22;;;;;;;;;;;;;;;0.08;47.78;101420.31;1941479;72;20441;-60
2022/03/24 04:18:50;;;;;;;;;;;;;;;0.14;48.06;101424.28;1940601;74;20108;-62
2022/03/24 04:21:18;;;;;;;;;;;;;;;0.21;47.95;101421.37;1940675;74;20112;-62
2022/03/24 04:23:48;;;;;;;;;;;;;;;0.30;48.08;101423.66;1938521;74;20125;-60
2022/03/24 04:26:16;;;;;;;;;;;;;;;0.40;48.18;101424.64;1934556;74;20117;-61
2022/03/24 04:28:44;;;;;;;;;;;;;;;0.38;48.34;101424.62;1934404;74;20140;-61
2022/03/24 04:31:12;;;;;;;;;;;;;;;0.40;48.53;101421.19;1934671;74;20210;-60
2022/03/24 04:33:40;;;;;;;;;;;;;;;0.47;48.76;101416.54;1934516;74;20109;-60
2022/03/24 04:36:08;;;;;;;;;;;;;;;0.55;49.18;101423.98;1934544;74;20104;-60
2022/03/24 04:38:37;;;;;;;;;;;;;;;0.58;49.05;101424.02;1934516;74;20210;-61
2022/03/24 04:41:08;;;;;;;;;;;;;;;0.62;49.02;101420.61;1935971;74;20151;-68
2022/03/24 04:43:37;;;;;;;;;;;;;;;0.69;49.62;101422.44;1936548;74;20144;-68
2022/03/24 04:46:05;;;;;;;;;;;;;;;0.79;49.28;101419.95;1936508;74;20363;-69
2022/03/24 04:48:36;;;;;;;;;;;;;;;0.82;49.12;101405.75;1936552;74;20117;-65
2022/03/24 04:51:03;;;;;;;;;;;;;;;0.90;49.16;101402.80;1936390;73;20113;-61
2022/03/24 04:53:32;;;;;;;;;;;;;;;0.90;49.04;101405.39;1936502;74;20148;-68
2022/03/24 04:55:59;;;;;;;;;;;;;;;0.85;49.05;101406.66;1936388;74;20121;-72
2022/03/24 04:58:27;;;;;;;;;;;;;;;0.80;48.77;101412.64;1936607;74;20112;-72
2022/03/24 05:00:55;;;;;;;;;;;;;;;0.73;49.07;101411.25;1936343;74;20105;-69
2022/03/24 05:03:22;;;;;;;;;;;;;;;0.71;49.03;101411.66;1936324;74;20164;-69
2022/03/24 05:05:50;;;;;;;;;;;;;;;0.69;49.35;101413.36;1936398;74;20117;-65
2022/03/24 05:08:18;;;;;;;;;;;;;;;0.67;49.57;101407.30;1936395;74;20113;-67
2022/03/24 05:10:46;;;;;;;;;;;;;;;0.65;49.81;101415.48;1936323;74;20116;-68
2022/03/24 05:13:13;;;;;;;;;;;;;;;0.68;50.03;101415.53;1936410;74;20113;-69
2022/03/24 05:15:41;;;;;;;;;;;;;;;0.72;50.05;101413.81;1936384;74;20105;-69
2022/03/24 05:18:09;;;;;;;;;;;;;;;0.70;50.11;101424.19;1936419;74;20499;-68
2022/03/24 05:20:37;;;;;;;;;;;;;;;0.74;50.19;101421.22;1936371;74;20143;-69
2022/03/24 05:23:05;;;;;;;;;;;;;;;0.72;50.47;101416.00;1936408;74;20117;-69
2022/03/24 05:25:34;;;;;;;;;;;;;;;0.79;50.96;101414.77;1963712;73;20118;-69
2022/03/24 05:28:04;;;;;;;;;;;;;;;0.88;50.51;101409.70;1970721;73;20224;-61
2022/03/24 05:30:31;;;;;;;;;;;;;;;0.99;50.35;101409.82;1970665;73;20103;-61
2022/03/24 05:32:58;;;;;;;;;;;;;;;1.12;50.38;101400.88;1970779;73;20391;-61
2022/03/24 05:35:27;;;;;;;;;;;;;;;1.40;50.69;101406.77;1970852;73;20110;-62
2022/03/24 05:37:55;;;;;;;;;;;;;;;1.93;50.84;101402.02;1970850;73;20365;-65
2022/03/24 05:40:23;;;;;;;;;;;;;;;2.58;50.35;101402.83;1966116;73;20140;-68
2022/03/24 05:42:51;;;;;;;;;;;;;;;3.06;49.69;101400.85;1961263;73;20140;-69
2022/03/24 05:45:18;;;;;;;;;;;;;;;3.54;49.19;101400.93;1961281;73;20136;-63
2022/03/24 05:47:46;;;;;;;;;;;;;;;3.86;48.25;101407.42;1961285;73;20127;-65
2022/03/24 05:50:15;;;;;;;;;;;;;;;3.90;47.78;101399.61;1960656;73;20163;-66
2022/03/24 05:52:49;;;;;;;;;;;;;;;3.70;47.21;101406.98;1950629;73;20179;-65
2022/03/24 05:55:15;;;;;;;;;;;;;;;3.44;47.11;101402.63;1960844;73;20139;-65
2022/03/24 05:57:44;;;;;;;;;;;;;;;3.15;47.26;101403.02;1961235;73;20167;-63
2022/03/24 06:00:12;;;;;;;;;;;;;;;2.87;47.57;101399.91;1961490;73;20178;-63
2022/03/24 06:02:44;;;;;;;;;;;;;;;2.66;47.92;101398.11;1961432;73;20484;-63
2022/03/24 06:05:12;;;;;;;;;;;;;;;2.52;48.26;101401.07;1961451;73;20405;-63
2022/03/24 06:07:40;;;;;;;;;;;;;;;2.41;48.39;101402.75;1961489;73;20128;-61
2022/03/24 06:10:08;;;;;;;;;;;;;;;2.50;48.53;101400.20;1961384;73;20140;-62
2022/03/24 06:12:37;;;;;;;;;;;;;;;2.60;49.11;101405.89;1961451;73;20139;-62
2022/03/24 06:15:05;;;;;;;;;;;;;;;2.83;49.11;101409.02;1961663;73;20378;-68
2022/03/24 06:17:34;;;;;;;;;;;;;;;3.18;49.11;101412.15;1961375;73;20136;-69
2022/03/24 06:20:04;;;;;;;;;;;;;;;3.54;48.59;101418.27;1961404;73;20140;-69
2022/03/24 06:22:33;;;;;;;;;;;;;;;3.81;48.26;101412.20;1961357;73;20169;-69
2022/03/24 06:25:01;;;;;;;;;;;;;;;3.89;47.69;101406.98;1958035;73;20140;-69
2022/03/24 06:27:29;;;;;;;;;;;;;;;3.84;47.37;101405.70;1955801;73;20144;-68
2022/03/24 06:29:57;;;;;;;;;;;;;;;3.94;47.66;101400.03;1955809;73;20173;-68
2022/03/24 06:32:25;;;;;;;;;;;;;;;4.03;47.45;101406.54;1955753;73;20419;-68
2022/03/24 06:34:52;;;;;;;;;;;;;;;4.18;47.32;101406.50;1956031;73;20445;-68
2022/03/24 06:37:21;;;;;;;;;;;;;;;4.64;47.20;101410.72;1955664;73;20132;-69
2022/03/24 06:39:48;;;;;;;;;;;;;;;5.11;46.92;101408.75;1950891;73;20113;-68
2022/03/24 06:42:16;;;;;;;;;;;;;;;5.27;46.28;101397.34;1936507;74;20117;-65
2022/03/24 06:44:44;;;;;;;;;;;;;;;5.24;45.94;101405.22;1936626;74;20179;-66
2022/03/24 06:47:12;;;;;;;;;;;;;;;5.07;45.79;101395.30;1936499;74;20117;-67
2022/03/24 06:49:39;;;;;;;;;;;;;;;4.80;45.74;101400.66;1936392;74;20101;-69
2022/03/24 06:52:07;;;;;;;;;;;;;;;4.66;46.07;101402.90;1936488;74;20146;-67
2022/03/24 06:54:35;;;;;;;;;;;;;;;4.70;46.63;101406.78;1936498;74;20108;-66
2022/03/24 06:57:03;;;;;;;;;;;;;;;4.54;46.51;101408.59;1936450;74;20194;-66
2022/03/24 06:59:31;;;;;;;;;;;;;;;4.15;47.03;101410.44;1936640;74;20117;-64
2022/03/24 07:02:02;;;;;;;;;;;;;;;4.03;47.32;101407.40;1936713;74;20140;-64
2022/03/24 07:04:28;;;;;;;;;;;;;;;3.95;47.50;101416.98;1936421;73;20226;-67
2022/03/24 07:06:56;;;;;;;;;;;;;;;3.85;47.63;101410.02;1936423;74;20144;-64
2022/03/24 07:09:24;;;;;;;;;;;;;;;3.76;48.08;101417.43;1936440;74;20137;-63
2022/03/24 07:11:52;;;;;;;;;;;;;;;3.70;48.01;101413.50;1915702;74;20121;-63
2022/03/24 07:14:20;;;;;;;;;;;;;;;3.79;47.89;101413.94;1936489;74;20143;-62
2022/03/24 07:16:48;;;;;;;;;;;;;;;3.86;48.03;101408.72;1936390;74;20121;-62
2022/03/24 07:19:15;;;;;;;;;;;;;;;3.94;48.30;101409.16;1936461;74;20100;-63
2022/03/24 07:21:43;;;;;;;;;;;;;;;4.07;48.24;101405.66;1936482;74;20156;-64
2022/03/24 07:24:11;;;;;;;;;;;;;;;4.18;48.02;101397.38;1936509;74;20113;-62
2022/03/24 07:26:39;;;;;;;;;;;;;;;4.28;47.99;101395.64;1969244;72;20118;-62
2022/03/24 07:29:07;;;;;;;;;;;;;;;4.38;48.28;101399.08;1980604;72;20126;-62
2022/03/24 07:31:35;;;;;;;;;;;;;;;4.29;48.32;101408.23;1980213;72;20223;-63
2022/03/24 07:34:03;;;;;;;;;;;;;;;4.18;48.48;101409.11;1980351;72;20207;-62
2022/03/24 07:36:31;;;;;;;;;;;;;;;4.28;48.49;101404.77;1980267;72;20221;-63
2022/03/24 07:38:59;;;;;;;;;;;;;;;4.74;48.47;101402.41;1980298;72;20172;-65
2022/03/24 07:41:27;;;;;;;;;;;;;;;5.44;47.66;101392.45;1962108;72;20123;-65
2022/03/24 07:43:55;;;;;;;;;;;;;;;6.30;46.83;101383.86;1960677;73;20139;-65
2022/03/24 07:46:23;;;;;;;;;;;;;;;7.22;45.86;101383.98;1960772;73;20170;-62
2022/03/24 07:48:50;;;;;;;;;;;;;;;7.91;44.04;101385.92;1960783;73;20139;-63
2022/03/24 07:51:19;;;;;;;;;;;;;;;8.56;43.33;101384.73;1960726;73;20128;-63
2022/03/24 07:53:49;;;;;;;;;;;;;;;9.27;42.14;101377.49;1960710;73;20137;-63
2022/03/24 07:56:17;;;;;;;;;;;;;;;9.63;41.83;101369.17;1960721;73;20170;-64
2022/03/24 07:58:45;;;;;;;;;;;;;;;10.01;41.54;101372.59;1960716;73;20205;-63
2022/03/24 08:01:14;;;;;;;;;;;;;;;9.96;40.34;101366.59;1960735;73;20191;-63
2022/03/24 08:03:43;;;;;;;;;;;;;;;9.79;40.22;101371.41;1960766;73;20160;-63
2022/03/24 08:06:10;;;;;;;;;;;;;;;9.61;39.92;101365.73;1960756;73;20390;-63
2022/03/24 08:08:38;;;;;;;;;;;;;;;9.12;40.09;101376.09;1960756;73;20124;-63
2022/03/24 08:11:06;;;;;;;;;;;;;;;8.64;40.61;101378.89;1960609;73;20127;-63
2022/03/24 08:13:34;;;;;;;;;;;;;;;8.45;41.12;101375.78;1960731;73;20191;-64
2022/03/24 08:16:02;;;;;;;;;;;;;;;8.69;41.02;101378.35;1960728;73;20170;-62
2022/03/24 08:18:30;;;;;;;;;;;;;;;9.09;40.81;101382.72;1960715;73;20143;-62
2022/03/24 08:20:58;;;;;;;;;;;;;;;9.52;40.52;101371.21;1960687;73;20128;-62
2022/03/24 08:23:26;;;;;;;;;;;;;;;10.24;40.21;101364.52;1960727;73;20162;-63
2022/03/24 08:25:54;;;;;;;;;;;;;;;11.25;38.54;101363.75;1960579;73;20205;-62
2022/03/24 08:28:22;;;;;;;;;;;;;;;11.87;37.75;101359.48;1960853;73;20144;-62
2022/03/24 08:30:49;;;;;;;;;;;;;;;12.70;37.30;101363.13;1960854;73;20402;-63
2022/03/24 08:33:17;;;;;;;;;;;;;;;13.28;36.64;101355.17;1960704;73;20169;-63
2022/03/24 08:35:45;;;;;;;;;;;;;;;13.90;35.68;101343.74;1960733;73;20139;-66
2022/03/24 08:38:13;;;;;;;;;;;;;;;14.20;34.67;101343.35;1960578;73;20183;-66
2022/03/24 08:40:41;;;;;;;;;;;;;;;14.42;34.17;101346.33;1972777;72;20114;-66
2022/03/24 08:43:09;;;;;;;;;;;;;;;14.53;33.67;101341.40;1980213;72;20114;-64
2022/03/24 08:45:37;;;;;;;;;;;;;;;14.69;33.75;101336.77;1980229;72;20110;-63
2022/03/24 08:48:06;;;;;;;;;;;;;;;14.77;33.56;101340.78;1980186;72;20102;-63
2022/03/24 08:50:35;;;;;;;;;;;;;;;14.83;33.79;101335.66;1980182;72;20146;-66
2022/03/24 08:53:04;;;;;;;;;;;;;;;14.95;33.13;101335.05;1980217;72;20148;-68
2022/03/24 08:55:31;;;;;;;;;;;;;;;15.12;33.12;101328.08;1980302;72;20372;-65
2022/03/24 08:58:00;;;;;;;;;;;;;;;15.22;32.44;101332.02;1980170;72;20110;-62
2022/03/24 09:00:28;;;;;;;;;;;;;;;15.13;32.71;101332.47;1980358;72;20122;-61
2022/03/24 09:02:56;;;;;;;;;;;;;;;15.60;32.73;101331.87;1980154;72;20106;-66
2022/03/24 09:05:24;;;;;;;;;;;;;;;15.98;32.08;101327.28;1980165;72;20195;-65
2022/03/24 09:07:51;;;;;;;;;;;;;;;15.96;30.91;101325.66;1980220;72;20149;-64
2022/03/24 09:10:20;;;;;;;;;;;;;;;15.92;31.19;101335.59;1980212;72;20102;-69
2022/03/24 09:12:48;;;;;;;;;;;;;;;15.48;31.25;101334.70;1980205;72;20114;-66
2022/03/24 09:15:17;;;;;;;;;;;;;;;15.16;31.34;101325.66;1980204;72;20110;-69
2022/03/24 09:17:46;;;;;;;;;;;;;;;14.77;31.86;101330.19;1980035;72;20376;-66
2022/03/24 09:20:15;;;;;;;;;;;;;;;14.59;32.34;101329.25;1980142;72;20196;-61
2022/03/24 09:22:44;;;;;;;;;;;;;;;14.28;32.26;101335.05;1980187;72;20114;-62
2022/03/24 09:25:17;;;;;;;;;;;;;;;14.22;32.48;101331.34;1980223;72;20126;-67
2022/03/24 09:27:42;;;;;;;;;;;;;;;14.24;32.39;101333.00;1956956;72;20144;-69
2022/03/24 09:30:15;;;;;;;;;;;;;;;14.24;32.27;101331.69;1951166;73;20120;-71
2022/03/24 09:32:45;;;;;;;;;;;;;;;14.47;32.38;101329.77;1952188;73;20202;-68
2022/03/24 09:35:14;;;;;;;;;;;;;;;13.96;32.77;101327.20;1952275;73;20375;-69
2022/03/24 09:37:42;;;;;;;;;;;;;;;13.42;33.28;101329.03;1952244;73;20118;-64
2022/03/24 09:40:11;;;;;;;;;;;;;;;12.89;33.93;101328.05;1951183;73;20278;-70
2022/03/24 09:42:39;;;;;;;;;;;;;;;12.51;34.46;101325.98;1952149;73;20113;-68
2022/03/24 09:45:09;;;;;;;;;;;;;;;12.13;34.91;101326.07;1952179;73;20112;-65
2022/03/24 09:47:37;;;;;;;;;;;;;;;11.59;35.45;101335.37;1952212;73;20370;-68
2022/03/24 09:50:06;;;;;;;;;;;;;;;10.91;36.50;101333.20;1952211;73;20128;-63
2022/03/24 09:52:34;;;;;;;;;;;;;;;10.57;37.26;101332.45;1952261;73;20420;-63
2022/03/24 09:55:01;;;;;;;;;;;;;;;11.07;37.26;101333.13;1951159;73;20129;-62
2022/03/24 09:57:29;;;;;;;;;;;;;;;11.82;36.87;101325.80;1952097;73;20191;-64
2022/03/24 09:59:58;;;;;;;;;;;;;;;11.87;36.27;101321.69;1951834;73;20142;-66
2022/03/24 10:02:28;;;;;;;;;;;;;;;12.38;36.28;101317.27;1951993;73;20113;-65
2022/03/24 10:05:02;;;;;;;;;;;;;;;13.20;35.47;101321.55;1952051;73;20194;-68
2022/03/24 10:07:31;;;;;;;;;;;;;;;13.87;34.65;101305.52;1964630;73;20418;-65
2022/03/24 10:10:01;;;;;;;;;;;;;;;14.21;34.28;101313.74;1955647;73;20133;-66
2022/03/24 10:12:39;;;;;;;;;;;;;;;14.39;33.69;101313.38;1935507;74;20105;-67
2022/03/24 10:15:08;;;;;;;;;;;;;;;14.36;33.88;101313.51;1922585;74;20114;-66
2022/03/24 10:17:37;;;;;;;;;;;;;;;14.62;33.79;101306.55;1939349;74;20145;-64
2022/03/24 10:20:16;;;;;;;;;;;;;;;15.21;33.56;101299.78;1939596;74;20483;-65
2022/03/24 10:23:01;;;;;;;;;;;;;;;15.64;33.44;101308.25;1939454;74;20183;-65
2022/03/24 10:25:35;;;;;;;;;;;;;;;15.19;33.14;101313.11;1939367;74;20398;-65
2022/03/24 10:28:06;;;;;;;;;;;;;;;14.72;33.50;101309.66;1928425;74;20141;-65
2022/03/24 10:30:47;;;;;;;;;;;;;;;14.65;33.91;101305.09;1920675;75;20438;-65
2022/03/24 10:33:29;;;;;;;;;;;;;;;14.64;33.29;101307.38;1920662;75;20145;-66
2022/03/24 10:36:10;;;;;;;;;;;;;;;14.81;33.47;101303.91;1938233;74;20139;-66
2022/03/24 10:38:39;;;;;;;;;;;;;;;15.00;33.11;101307.86;1939368;74;20383;-67
2022/03/24 10:41:18;;;;;;;;;;;;;;;14.99;33.16;101307.45;1939044;74;20117;-64
2022/03/24 10:43:49;;;;;;;;;;;;;;;15.22;33.45;101305.48;1939209;74;20116;-67
2022/03/24 10:46:18;;;;;;;;;;;;;;;15.58;33.29;101295.27;1939392;74;20117;-62
2022/03/24 10:48:51;;;;;;;;;;;;;;;15.10;33.26;101295.47;1939513;74;20147;-61
2022/03/24 10:51:26;;;;;;;;;;;;;;;14.46;33.66;101293.63;1938341;74;20117;-60
2022/03/24 10:54:12;;;;;;;;;;;;;;;14.07;34.17;101294.48;1939254;74;20556;-67
2022/03/24 10:56:43;;;;;;;;;;;;;;;13.80;34.54;101290.83;1939404;74;20139;-63
2022/03/24 10:59:11;;;;;;;;;;;;;;;13.51;34.88;101290.28;1939392;74;20363;-64
2022/03/24 11:01:39;;;;;;;;;;;;;;;13.13;35.05;101301.98;1939241;74;20117;-62
2022/03/24 11:04:07;;;;;;;;;;;;;;;12.59;35.73;101298.41;1929851;74;20167;-61
2022/03/24 11:06:34;;;;;;;;;;;;;;;12.36;36.12;101302.80;1920662;75;20196;-62
2022/03/24 11:09:03;;;;;;;;;;;;;;;12.79;36.21;101299.81;1920742;75;20138;-65
2022/03/24 11:11:31;;;;;;;;;;;;;;;13.38;35.82;101290.41;1919607;75;20115;-60
2022/03/24 11:14:00;;;;;;;;;;;;;;;13.57;35.57;101294.92;1919079;74;20114;-62
2022/03/24 11:16:29;;;;;;;;;;;;;;;13.61;35.60;101284.59;1914614;75;20110;-62
2022/03/24 11:18:57;;;;;;;;;;;;;;;13.80;35.69;101290.83;1906160;75;20121;-63
2022/03/24 11:21:30;;;;;;;;;;;;;;;13.86;35.67;101286.58;1912908;74;20286;-65
2022/03/24 11:23:58;;;;;;;;;;;;;;;13.41;35.58;101288.97;1917453;75;20122;-64
2022/03/24 11:26:26;;;;;;;;;;;;;;;12.80;35.84;101298.02;1887529;75;20101;-63
2022/03/24 11:28:55;;;;;;;;;;;;;;;12.12;36.50;101296.18;1941652;73;20116;-65
2022/03/24 11:31:23;;;;;;;;;;;;;;;11.69;37.07;101295.48;1961199;73;20108;-67
2022/03/24 11:33:54;;;;;;;;;;;;;;;11.49;37.41;101306.28;1953461;72;20108;-68
2022/03/24 11:36:22;;;;;;;;;;;;;;;11.40;37.73;101294.73;1949631;73;20112;-68
2022/03/24 11:38:55;;;;;;;;;;;;;;;11.32;37.93;101292.78;1952131;73;20132;-68
2022/03/24 11:41:24;;;;;;;;;;;;;;;11.31;38.23;101295.89;1954526;72;20518;-68
2022/03/24 11:43:53;;;;;;;;;;;;;;;11.22;38.21;101287.43;1987368;72;20140;-68
2022/03/24 11:46:22;;;;;;;;;;;;;;;11.10;38.29;101293.52;1987506;72;20094;-68
2022/03/24 11:48:50;;;;;;;;;;;;;;;10.97;38.47;101291.73;1983660;72;20145;-67
2022/03/24 11:51:23;;;;;;;;;;;;;;;10.88;38.68;101288.06;1947760;72;20152;-67
2022/03/24 11:53:52;;;;;;;;;;;;;;;10.72;39.07;101284.19;1931278;73;20112;-66
2022/03/24 11:56:21;;;;;;;;;;;;;;;10.67;39.10;101281.67;1952022;73;20295;-67
2022/03/24 11:58:56;;;;;;;;;;;;;;;10.61;39.21;101288.45;1960467;73;20103;-68
2022/03/24 12:01:25;;;;;;;;;;;;;;;10.45;39.54;101291.14;1958355;73;20114;-67
2022/03/24 12:03:57;;;;;;;;;;;;;;;10.38;39.62;101287.38;1949408;73;20110;-67
2022/03/24 12:06:45;;;;;;;;;;;;;;;10.34;39.93;101285.72;1954699;73;20105;-67
2022/03/24 12:09:17;;;;;;;;;;;;;;;10.27;40.17;101284.60;1969091;73;20181;-60
2022/03/24 12:11:47;;;;;;;;;;;;;;;10.16;40.99;101294.12;1956555;72;20379;-60
2022/03/24 12:14:20;;;;;;;;;;;;;;;10.07;40.88;101287.80;1940624;72;20110;-60
2022/03/24 12:16:49;;;;;;;;;;;;;;;10.09;40.89;101293.45;1958925;72;20116;-59
2022/03/24 12:19:39;;;;;;;;;;;;;;;10.19;40.70;101291.41;1947544;73;20240;-62
2022/03/24 12:22:22;;;;;;;;;;;;;;;10.25;40.77;101291.22;1961901;72;20146;-65
2022/03/24 12:24:50;;;;;;;;;;;;;;;10.19;40.87;101299.30;1945722;73;20106;-60
2022/03/24 12:27:17;;;;;;;;;;;;;;;10.09;41.08;101292.56;1940290;72;20114;-59
2022/03/24 12:30:03;;;;;;;;;;;;;;;10.03;41.15;101291.85;1957093;72;20106;-59
2022/03/24 12:32:32;;;;;;;;;;;;;;;10.04;41.00;101302.77;1952165;73;20110;-62
2022/03/24 12:35:00;;;;;;;;;;;;;;;9.95;41.20;101305.66;1952158;73;20111;-59
2022/03/24 12:37:29;;;;;;;;;;;;;;;9.84;41.47;101305.09;1952094;73;20118;-60
2022/03/24 12:40:10;;;;;;;;;;;;;;;9.72;41.60;101310.23;1951899;73;20198;-63
2022/03/24 12:42:42;;;;;;;;;;;;;;;9.64;41.66;101306.47;1952096;73;20119;-59
2022/03/24 12:45:11;;;;;;;;;;;;;;;9.53;42.22;101303.71;1952127;73;20112;-59
2022/03/24 12:47:40;;;;;;;;;;;;;;;9.50;42.35;101308.61;1952119;73;20104;-59
2022/03/24 12:50:09;;;;;;;;;;;;;;;9.45;42.47;101307.86;1952886;72;20415;-60
2022/03/24 12:52:45;;;;;;;;;;;;;;;9.31;43.17;101317.38;1975381;72;20419;-61